sensor_id;sensor_type;location;lat;lon;timestamp;temperature;humidity
2955;DHT22;1487;51.470;6.938;2023-01-08T00:00:08;9.80;99.90
2955;DHT22;1487;51.470;6.938;2023-01-08T00:02:35;9.80;99.90
2955;DHT22;1487;51.470;6.938;2023-01-08T00:05:02;9.90;99.90
2955;DHT22;1487;51.470;6.938;2023-01-08T00:07:29;9.90;99.90
2955;DHT22;1487;51.470;6.938;2023-01-08T00:09:56;9.90;99.90
2955;DHT22;1487;51.470;6.938;2023-01-08T00:12:22;9.90;99.90
2955;DHT22;1487;51.470;6.938;2023-01-08T00:14:49;9.90;99.90
2955;DHT22;1487;51.470;6.938;2023-01-08T00:17:17;10.00;99.90
2955;DHT22;1487;51.470;6.938;2023-01-08T00:19:44;10.00;99.90
2955;DHT22;1487;51.470;6.938;2023-01-08T00:22:11;10.00;99.90
2955;DHT22;1487;51.470;6.938;2023-01-08T00:24:38;10.10;99.90
2955;DHT22;1487;51.470;6.938;2023-01-08T00:27:05;10.10;99.90
2955;DHT22;1487;51.470;6.938;2023-01-08T00:29:32;10.10;99.90
2955;DHT22;1487;51.470;6.938;2023-01-08T00:31:59;10.10;99.90
2955;DHT22;1487;51.470;6.938;2023-01-08T00:34:27;10.10;99.90
2955;DHT22;1487;51.470;6.938;2023-01-08T00:36:54;10.10;99.90
2955;DHT22;1487;51.470;6.938;2023-01-08T00:39:20;10.10;99.90
2955;DHT22;1487;51.470;6.938;2023-01-08T00:41:47;10.10;99.90
2955;DHT22;1487;51.470;6.938;2023-01-08T00:44:14;10.10;99.90
2955;DHT22;1487;51.470;6.938;2023-01-08T00:46:41;10.10;99.90
2955;DHT22;1487;51.470;6.938;2023-01-08T00:49:08;10.10;99.90
2955;DHT22;1487;51.470;6.938;2023-01-08T00:51:36;10.10;99.90
2955;DHT22;1487;51.470;6.938;2023-01-08T00:54:03;10.10;99.90
2955;DHT22;1487;51.470;6.938;2023-01-08T00:56:29;10.10;99.90
2955;DHT22;1487;51.470;6.938;2023-01-08T00:58:56;10.10;99.90
2955;DHT22;1487;51.470;6.938;2023-01-08T01:01:23;10.10;99.90
2955;DHT22;1487;51.470;6.938;2023-01-08T01:03:50;10.10;99.90
2955;DHT22;1487;51.470;6.938;2023-01-08T01:06:17;10.20;99.90
2955;DHT22;1487;51.470;6.938;2023-01-08T01:08:45;10.20;99.90
2955;DHT22;1487;51.470;6.938;2023-01-08T01:11:17;10.10;99.90
2955;DHT22;1487;51.470;6.938;2023-01-08T01:13:45;10.20;99.90
2955;DHT22;1487;51.470;6.938;2023-01-08T01:16:12;10.20;99.90
2955;DHT22;1487;51.470;6.938;2023-01-08T01:18:38;10.20;99.90
2955;DHT22;1487;51.470;6.938;2023-01-08T01:21:09;10.20;99.90
2955;DHT22;1487;51.470;6.938;2023-01-08T01:23:36;10.20;99.90
2955;DHT22;1487;51.470;6.938;2023-01-08T01:26:04;10.20;99.90
2955;DHT22;1487;51.470;6.938;2023-01-08T01:28:31;10.20;99.90
2955;DHT22;1487;51.470;6.938;2023-01-08T01:30:58;10.20;99.90
2955;DHT22;1487;51.470;6.938;2023-01-08T01:33:28;10.20;99.90
2955;DHT22;1487;51.470;6.938;2023-01-08T01:35:59;10.20;99.90
2955;DHT22;1487;51.470;6.938;2023-01-08T01:38:26;10.20;99.90
2955;DHT22;1487;51.470;6.938;2023-01-08T01:40:53;10.20;99.90
2955;DHT22;1487;51.470;6.938;2023-01-08T01:43:34;10.20;99.90
2955;DHT22;1487;51.470;6.938;2023-01-08T01:46:02;10.20;99.90
2955;DHT22;1487;51.470;6.938;2023-01-08T01:48:30;10.10;99.90
2955;DHT22;1487;51.470;6.938;2023-01-08T01:50:57;10.20;99.90
2955;DHT22;1487;51.470;6.938;2023-01-08T01:53:28;10.10;99.90
2955;DHT22;1487;51.470;6.938;2023-01-08T01:55:56;10.10;99.90
2955;DHT22;1487;51.470;6.938;2023-01-08T01:58:25;10.20;99.90
2955;DHT22;1487;51.470;6.938;2023-01-08T02:00:56;10.10;99.90
2955;DHT22;1487;51.470;6.938;2023-01-08T02:03:24;10.10;99.90
2955;DHT22;1487;51.470;6.938;2023-01-08T02:05:56;10.10;99.90
2955;DHT22;1487;51.470;6.938;2023-01-08T02:08:31;10.10;99.90
2955;DHT22;1487;51.470;6.938;2023-01-08T02:11:07;10.10;99.90
2955;DHT22;1487;51.470;6.938;2023-01-08T02:13:37;10.00;99.90
2955;DHT22;1487;51.470;6.938;2023-01-08T02:16:13;10.00;99.90
2955;DHT22;1487;51.470;6.938;2023-01-08T02:18:45;9.90;99.90
2955;DHT22;1487;51.470;6.938;2023-01-08T02:21:16;9.90;99.90
2955;DHT22;1487;51.470;6.938;2023-01-08T02:23:47;9.80;99.90
2955;DHT22;1487;51.470;6.938;2023-01-08T02:26:21;9.80;99.90
2955;DHT22;1487;51.470;6.938;2023-01-08T02:28:52;9.80;99.90
2955;DHT22;1487;51.470;6.938;2023-01-08T02:31:21;9.80;99.90
2955;DHT22;1487;51.470;6.938;2023-01-08T02:33:50;9.80;99.90
2955;DHT22;1487;51.470;6.938;2023-01-08T02:36:31;9.90;99.90
2955;DHT22;1487;51.470;6.938;2023-01-08T02:39:20;9.90;99.90
2955;DHT22;1487;51.470;6.938;2023-01-08T02:42:06;9.90;99.90
2955;DHT22;1487;51.470;6.938;2023-01-08T02:44:44;9.90;99.90
2955;DHT22;1487;51.470;6.938;2023-01-08T02:47:20;9.80;99.90
2955;DHT22;1487;51.470;6.938;2023-01-08T02:49:53;9.80;99.90
2955;DHT22;1487;51.470;6.938;2023-01-08T02:52:22;9.80;99.90
2955;DHT22;1487;51.470;6.938;2023-01-08T02:54:52;9.80;99.90
2955;DHT22;1487;51.470;6.938;2023-01-08T02:57:21;9.80;99.90
2955;DHT22;1487;51.470;6.938;2023-01-08T02:59:48;9.80;99.90
2955;DHT22;1487;51.470;6.938;2023-01-08T03:02:16;9.80;99.90
2955;DHT22;1487;51.470;6.938;2023-01-08T03:04:48;9.80;99.90
2955;DHT22;1487;51.470;6.938;2023-01-08T03:07:17;9.80;99.90
2955;DHT22;1487;51.470;6.938;2023-01-08T03:09:43;9.80;99.90
2955;DHT22;1487;51.470;6.938;2023-01-08T03:12:17;9.80;99.90
2955;DHT22;1487;51.470;6.938;2023-01-08T03:14:51;9.80;99.90
2955;DHT22;1487;51.470;6.938;2023-01-08T03:17:23;9.80;99.90
2955;DHT22;1487;51.470;6.938;2023-01-08T03:19:53;9.80;99.90
2955;DHT22;1487;51.470;6.938;2023-01-08T03:22:21;9.80;99.90
2955;DHT22;1487;51.470;6.938;2023-01-08T03:24:51;9.80;99.90
2955;DHT22;1487;51.470;6.938;2023-01-08T03:27:21;9.80;99.90
2955;DHT22;1487;51.470;6.938;2023-01-08T03:29:52;9.80;99.90
2955;DHT22;1487;51.470;6.938;2023-01-08T03:32:20;9.80;99.90
2955;DHT22;1487;51.470;6.938;2023-01-08T03:34:49;9.80;99.90
2955;DHT22;1487;51.470;6.938;2023-01-08T03:37:21;9.90;99.90
2955;DHT22;1487;51.470;6.938;2023-01-08T03:39:54;9.90;99.90
2955;DHT22;1487;51.470;6.938;2023-01-08T03:42:24;9.90;99.90
2955;DHT22;1487;51.470;6.938;2023-01-08T03:44:53;9.90;99.90
2955;DHT22;1487;51.470;6.938;2023-01-08T03:47:21;9.90;99.90
2955;DHT22;1487;51.470;6.938;2023-01-08T03:49:50;10.00;99.90
2955;DHT22;1487;51.470;6.938;2023-01-08T03:52:22;10.00;99.90
2955;DHT22;1487;51.470;6.938;2023-01-08T03:54:49;10.00;99.90
2955;DHT22;1487;51.470;6.938;2023-01-08T03:57:16;10.00;99.90
2955;DHT22;1487;51.470;6.938;2023-01-08T03:59:43;10.00;99.90
2955;DHT22;1487;51.470;6.938;2023-01-08T04:02:11;10.00;99.90
2955;DHT22;1487;51.470;6.938;2023-01-08T04:04:38;10.00;99.90
2955;DHT22;1487;51.470;6.938;2023-01-08T04:07:05;10.00;99.90
2955;DHT22;1487;51.470;6.938;2023-01-08T04:09:32;9.90;99.90
2955;DHT22;1487;51.470;6.938;2023-01-08T04:11:59;9.90;99.90
2955;DHT22;1487;51.470;6.938;2023-01-08T04:14:26;10.00;99.90
2955;DHT22;1487;51.470;6.938;2023-01-08T04:16:53;9.90;99.90
2955;DHT22;1487;51.470;6.938;2023-01-08T04:19:21;10.00;99.90
2955;DHT22;1487;51.470;6.938;2023-01-08T04:21:49;10.00;99.90
2955;DHT22;1487;51.470;6.938;2023-01-08T04:24:16;10.00;99.90
2955;DHT22;1487;51.470;6.938;2023-01-08T04:26:43;10.00;99.90
2955;DHT22;1487;51.470;6.938;2023-01-08T04:29:10;10.00;99.90
2955;DHT22;1487;51.470;6.938;2023-01-08T04:31:37;10.00;99.90
2955;DHT22;1487;51.470;6.938;2023-01-08T04:34:04;10.00;99.90
2955;DHT22;1487;51.470;6.938;2023-01-08T04:36:32;10.00;99.90
2955;DHT22;1487;51.470;6.938;2023-01-08T04:38:59;10.00;99.90
2955;DHT22;1487;51.470;6.938;2023-01-08T04:41:26;9.90;99.90
2955;DHT22;1487;51.470;6.938;2023-01-08T04:43:54;9.90;99.90
2955;DHT22;1487;51.470;6.938;2023-01-08T04:46:21;9.90;99.90
2955;DHT22;1487;51.470;6.938;2023-01-08T04:48:48;9.80;99.90
2955;DHT22;1487;51.470;6.938;2023-01-08T04:51:14;9.80;99.90
2955;DHT22;1487;51.470;6.938;2023-01-08T04:53:43;9.80;99.90
2955;DHT22;1487;51.470;6.938;2023-01-08T04:56:10;9.70;99.90
2955;DHT22;1487;51.470;6.938;2023-01-08T04:58:38;9.70;99.90
2955;DHT22;1487;51.470;6.938;2023-01-08T05:01:10;9.70;99.90
2955;DHT22;1487;51.470;6.938;2023-01-08T05:03:37;9.70;99.90
2955;DHT22;1487;51.470;6.938;2023-01-08T05:06:05;9.60;99.90
2955;DHT22;1487;51.470;6.938;2023-01-08T05:08:32;9.60;99.90
2955;DHT22;1487;51.470;6.938;2023-01-08T05:11:00;9.70;99.90
2955;DHT22;1487;51.470;6.938;2023-01-08T05:13:27;9.60;99.90
2955;DHT22;1487;51.470;6.938;2023-01-08T05:15:57;9.60;99.90
2955;DHT22;1487;51.470;6.938;2023-01-08T05:18:25;9.60;99.90
2955;DHT22;1487;51.470;6.938;2023-01-08T05:20:52;9.60;99.90
2955;DHT22;1487;51.470;6.938;2023-01-08T05:23:19;9.70;99.90
2955;DHT22;1487;51.470;6.938;2023-01-08T05:25:46;9.70;99.90
2955;DHT22;1487;51.470;6.938;2023-01-08T05:28:14;9.70;99.90
2955;DHT22;1487;51.470;6.938;2023-01-08T05:30:41;9.70;99.90
2955;DHT22;1487;51.470;6.938;2023-01-08T05:33:08;9.70;99.90
2955;DHT22;1487;51.470;6.938;2023-01-08T05:35:37;9.80;99.90
2955;DHT22;1487;51.470;6.938;2023-01-08T05:38:04;9.80;99.90
2955;DHT22;1487;51.470;6.938;2023-01-08T05:40:31;9.80;99.90
2955;DHT22;1487;51.470;6.938;2023-01-08T05:42:58;9.80;99.90
2955;DHT22;1487;51.470;6.938;2023-01-08T05:45:27;9.80;99.90
2955;DHT22;1487;51.470;6.938;2023-01-08T05:47:54;9.80;99.90
2955;DHT22;1487;51.470;6.938;2023-01-08T05:50:20;9.80;99.90
2955;DHT22;1487;51.470;6.938;2023-01-08T05:52:47;9.70;99.90
2955;DHT22;1487;51.470;6.938;2023-01-08T05:55:14;9.70;99.90
2955;DHT22;1487;51.470;6.938;2023-01-08T05:57:41;9.70;99.90
2955;DHT22;1487;51.470;6.938;2023-01-08T06:00:09;9.60;99.90
2955;DHT22;1487;51.470;6.938;2023-01-08T06:02:38;9.50;99.90
2955;DHT22;1487;51.470;6.938;2023-01-08T06:05:05;9.50;99.90
2955;DHT22;1487;51.470;6.938;2023-01-08T06:07:32;9.50;99.90
2955;DHT22;1487;51.470;6.938;2023-01-08T06:09:59;9.50;99.90
2955;DHT22;1487;51.470;6.938;2023-01-08T06:12:25;9.50;99.90
2955;DHT22;1487;51.470;6.938;2023-01-08T06:14:52;9.50;99.90
2955;DHT22;1487;51.470;6.938;2023-01-08T06:17:19;9.50;99.90
2955;DHT22;1487;51.470;6.938;2023-01-08T06:19:47;9.50;99.90
2955;DHT22;1487;51.470;6.938;2023-01-08T06:22:14;9.60;99.90
2955;DHT22;1487;51.470;6.938;2023-01-08T06:24:41;9.60;99.90
2955;DHT22;1487;51.470;6.938;2023-01-08T06:27:08;9.60;99.90
2955;DHT22;1487;51.470;6.938;2023-01-08T06:29:34;9.70;99.90
2955;DHT22;1487;51.470;6.938;2023-01-08T06:32:01;9.70;99.90
2955;DHT22;1487;51.470;6.938;2023-01-08T06:34:28;9.70;99.90
2955;DHT22;1487;51.470;6.938;2023-01-08T06:36:56;9.80;99.90
2955;DHT22;1487;51.470;6.938;2023-01-08T06:39:23;9.80;99.90
2955;DHT22;1487;51.470;6.938;2023-01-08T06:41:50;9.80;99.90
2955;DHT22;1487;51.470;6.938;2023-01-08T06:44:17;9.80;99.90
2955;DHT22;1487;51.470;6.938;2023-01-08T06:46:43;9.80;99.90
2955;DHT22;1487;51.470;6.938;2023-01-08T06:49:11;9.80;99.90
2955;DHT22;1487;51.470;6.938;2023-01-08T06:51:39;9.70;99.90
2955;DHT22;1487;51.470;6.938;2023-01-08T06:54:07;9.60;99.90
2955;DHT22;1487;51.470;6.938;2023-01-08T06:56:34;9.30;99.90
2955;DHT22;1487;51.470;6.938;2023-01-08T06:59:01;9.10;99.90
2955;DHT22;1487;51.470;6.938;2023-01-08T07:01:28;8.90;99.90
2955;DHT22;1487;51.470;6.938;2023-01-08T07:03:55;8.70;99.90
2955;DHT22;1487;51.470;6.938;2023-01-08T07:06:22;8.60;99.90
2955;DHT22;1487;51.470;6.938;2023-01-08T07:08:49;8.50;99.90
2955;DHT22;1487;51.470;6.938;2023-01-08T07:11:17;8.30;99.90
2955;DHT22;1487;51.470;6.938;2023-01-08T07:13:44;8.20;99.90
2955;DHT22;1487;51.470;6.938;2023-01-08T07:16:12;8.20;99.90
2955;DHT22;1487;51.470;6.938;2023-01-08T07:18:40;8.20;99.90
2955;DHT22;1487;51.470;6.938;2023-01-08T07:21:07;8.10;99.90
2955;DHT22;1487;51.470;6.938;2023-01-08T07:23:35;8.10;99.90
2955;DHT22;1487;51.470;6.938;2023-01-08T07:26:04;8.10;99.90
2955;DHT22;1487;51.470;6.938;2023-01-08T07:28:32;8.10;99.90
2955;DHT22;1487;51.470;6.938;2023-01-08T07:31:02;8.00;99.90
2955;DHT22;1487;51.470;6.938;2023-01-08T07:33:30;8.00;99.90
2955;DHT22;1487;51.470;6.938;2023-01-08T07:35:56;8.00;99.90
2955;DHT22;1487;51.470;6.938;2023-01-08T07:38:23;8.00;99.90
2955;DHT22;1487;51.470;6.938;2023-01-08T07:40:50;8.00;99.90
2955;DHT22;1487;51.470;6.938;2023-01-08T07:43:18;8.00;99.90
2955;DHT22;1487;51.470;6.938;2023-01-08T07:45:46;7.90;99.90
2955;DHT22;1487;51.470;6.938;2023-01-08T07:48:13;7.90;99.90
2955;DHT22;1487;51.470;6.938;2023-01-08T07:50:41;8.00;99.90
2955;DHT22;1487;51.470;6.938;2023-01-08T07:53:08;7.90;99.90
2955;DHT22;1487;51.470;6.938;2023-01-08T07:55:35;7.90;99.90
2955;DHT22;1487;51.470;6.938;2023-01-08T07:58:07;7.90;99.90
2955;DHT22;1487;51.470;6.938;2023-01-08T08:00:34;7.90;99.90
2955;DHT22;1487;51.470;6.938;2023-01-08T08:03:03;7.90;99.90
2955;DHT22;1487;51.470;6.938;2023-01-08T08:05:31;7.80;99.90
2955;DHT22;1487;51.470;6.938;2023-01-08T08:07:58;7.80;99.90
2955;DHT22;1487;51.470;6.938;2023-01-08T08:10:25;7.80;99.90
2955;DHT22;1487;51.470;6.938;2023-01-08T08:12:51;7.70;99.90
2955;DHT22;1487;51.470;6.938;2023-01-08T08:15:18;7.70;99.90
2955;DHT22;1487;51.470;6.938;2023-01-08T08:17:45;7.70;99.90
2955;DHT22;1487;51.470;6.938;2023-01-08T08:20:14;7.70;99.90
2955;DHT22;1487;51.470;6.938;2023-01-08T08:22:41;7.60;99.90
2955;DHT22;1487;51.470;6.938;2023-01-08T08:25:08;7.60;99.90
2955;DHT22;1487;51.470;6.938;2023-01-08T08:27:35;7.60;99.90
2955;DHT22;1487;51.470;6.938;2023-01-08T08:30:02;7.50;99.90
2955;DHT22;1487;51.470;6.938;2023-01-08T08:32:29;7.50;99.90
2955;DHT22;1487;51.470;6.938;2023-01-08T08:34:56;7.40;99.90
2955;DHT22;1487;51.470;6.938;2023-01-08T08:37:24;7.40;99.90
2955;DHT22;1487;51.470;6.938;2023-01-08T08:39:51;7.40;99.90
2955;DHT22;1487;51.470;6.938;2023-01-08T08:42:18;7.40;99.90
2955;DHT22;1487;51.470;6.938;2023-01-08T08:44:45;7.40;99.90
2955;DHT22;1487;51.470;6.938;2023-01-08T08:47:12;7.40;99.90
2955;DHT22;1487;51.470;6.938;2023-01-08T08:49:39;7.50;99.90
2955;DHT22;1487;51.470;6.938;2023-01-08T08:52:06;7.50;99.90
2955;DHT22;1487;51.470;6.938;2023-01-08T08:54:34;7.50;99.90
2955;DHT22;1487;51.470;6.938;2023-01-08T08:57:03;7.60;99.90
2955;DHT22;1487;51.470;6.938;2023-01-08T08:59:30;7.80;99.90
2955;DHT22;1487;51.470;6.938;2023-01-08T09:01:56;8.10;99.90
2955;DHT22;1487;51.470;6.938;2023-01-08T09:04:23;8.30;99.90
2955;DHT22;1487;51.470;6.938;2023-01-08T09:06:50;8.60;99.90
2955;DHT22;1487;51.470;6.938;2023-01-08T09:09:17;8.90;99.90
2955;DHT22;1487;51.470;6.938;2023-01-08T09:11:45;9.40;99.90
2955;DHT22;1487;51.470;6.938;2023-01-08T09:14:12;9.60;99.90
2955;DHT22;1487;51.470;6.938;2023-01-08T09:16:39;9.90;99.90
2955;DHT22;1487;51.470;6.938;2023-01-08T09:19:07;10.30;99.90
2955;DHT22;1487;51.470;6.938;2023-01-08T09:21:35;10.70;99.90
2955;DHT22;1487;51.470;6.938;2023-01-08T09:24:02;11.10;99.90
2955;DHT22;1487;51.470;6.938;2023-01-08T09:26:29;11.20;99.90
2955;DHT22;1487;51.470;6.938;2023-01-08T09:28:58;11.50;99.90
2955;DHT22;1487;51.470;6.938;2023-01-08T09:31:25;11.80;99.90
2955;DHT22;1487;51.470;6.938;2023-01-08T09:33:52;12.00;99.90
2955;DHT22;1487;51.470;6.938;2023-01-08T09:36:19;11.80;99.90
2955;DHT22;1487;51.470;6.938;2023-01-08T09:38:46;11.70;99.90
2955;DHT22;1487;51.470;6.938;2023-01-08T09:41:17;11.40;99.90
2955;DHT22;1487;51.470;6.938;2023-01-08T09:43:48;11.10;99.90
2955;DHT22;1487;51.470;6.938;2023-01-08T09:46:18;11.10;99.90
2955;DHT22;1487;51.470;6.938;2023-01-08T09:48:47;11.00;99.90
2955;DHT22;1487;51.470;6.938;2023-01-08T09:51:17;10.90;99.90
2955;DHT22;1487;51.470;6.938;2023-01-08T09:53:45;10.90;99.90
2955;DHT22;1487;51.470;6.938;2023-01-08T09:56:15;10.90;99.90
2955;DHT22;1487;51.470;6.938;2023-01-08T09:58:44;10.90;99.90
2955;DHT22;1487;51.470;6.938;2023-01-08T10:01:16;11.00;99.90
2955;DHT22;1487;51.470;6.938;2023-01-08T10:03:47;11.20;99.90
2955;DHT22;1487;51.470;6.938;2023-01-08T10:06:15;11.10;99.90
2955;DHT22;1487;51.470;6.938;2023-01-08T10:08:43;10.80;99.90
2955;DHT22;1487;51.470;6.938;2023-01-08T10:11:12;10.50;99.90
2955;DHT22;1487;51.470;6.938;2023-01-08T10:13:41;10.30;99.90
2955;DHT22;1487;51.470;6.938;2023-01-08T10:16:14;10.20;99.90
2955;DHT22;1487;51.470;6.938;2023-01-08T10:18:44;10.20;99.90
2955;DHT22;1487;51.470;6.938;2023-01-08T10:21:12;10.30;99.90
2955;DHT22;1487;51.470;6.938;2023-01-08T10:23:48;10.50;99.90
2955;DHT22;1487;51.470;6.938;2023-01-08T10:26:25;10.80;99.90
2955;DHT22;1487;51.470;6.938;2023-01-08T10:29:05;10.90;99.90
2955;DHT22;1487;51.470;6.938;2023-01-08T10:31:32;11.10;99.90
2955;DHT22;1487;51.470;6.938;2023-01-08T10:34:08;11.50;99.90
2955;DHT22;1487;51.470;6.938;2023-01-08T10:36:38;11.90;99.90
2955;DHT22;1487;51.470;6.938;2023-01-08T10:39:06;12.10;99.90
2955;DHT22;1487;51.470;6.938;2023-01-08T10:41:39;12.00;99.90
2955;DHT22;1487;51.470;6.938;2023-01-08T10:44:14;11.90;99.90
2955;DHT22;1487;51.470;6.938;2023-01-08T10:46:43;11.70;99.90
2955;DHT22;1487;51.470;6.938;2023-01-08T10:49:17;11.80;99.90
2955;DHT22;1487;51.470;6.938;2023-01-08T10:51:50;11.90;99.90
2955;DHT22;1487;51.470;6.938;2023-01-08T10:54:32;12.00;99.90
2955;DHT22;1487;51.470;6.938;2023-01-08T10:57:00;12.00;99.90
2955;DHT22;1487;51.470;6.938;2023-01-08T10:59:26;11.70;99.90
2955;DHT22;1487;51.470;6.938;2023-01-08T11:01:55;11.60;99.90
2955;DHT22;1487;51.470;6.938;2023-01-08T11:04:28;11.80;99.90
2955;DHT22;1487;51.470;6.938;2023-01-08T11:06:59;12.20;99.90
2955;DHT22;1487;51.470;6.938;2023-01-08T11:09:28;12.50;99.90
2955;DHT22;1487;51.470;6.938;2023-01-08T11:11:56;12.40;99.90
2955;DHT22;1487;51.470;6.938;2023-01-08T11:14:27;12.30;99.90
2955;DHT22;1487;51.470;6.938;2023-01-08T11:16:54;12.10;99.90
2955;DHT22;1487;51.470;6.938;2023-01-08T11:19:25;11.70;99.90
2955;DHT22;1487;51.470;6.938;2023-01-08T11:22:00;11.60;99.90
2955;DHT22;1487;51.470;6.938;2023-01-08T11:24:28;11.50;99.90
2955;DHT22;1487;51.470;6.938;2023-01-08T11:27:00;11.60;99.90
2955;DHT22;1487;51.470;6.938;2023-01-08T11:29:34;11.70;99.90
2955;DHT22;1487;51.470;6.938;2023-01-08T11:32:23;11.70;99.90
2955;DHT22;1487;51.470;6.938;2023-01-08T11:34:56;11.40;99.90
2955;DHT22;1487;51.470;6.938;2023-01-08T11:37:26;11.30;99.90
2955;DHT22;1487;51.470;6.938;2023-01-08T11:39:54;11.10;99.90
2955;DHT22;1487;51.470;6.938;2023-01-08T11:42:43;11.10;99.90
2955;DHT22;1487;51.470;6.938;2023-01-08T11:45:20;11.00;99.90
2955;DHT22;1487;51.470;6.938;2023-01-08T11:48:09;11.00;99.90
2955;DHT22;1487;51.470;6.938;2023-01-08T11:50:49;10.90;99.90
2955;DHT22;1487;51.470;6.938;2023-01-08T11:53:25;10.80;99.90
2955;DHT22;1487;51.470;6.938;2023-01-08T11:56:01;10.80;99.90
2955;DHT22;1487;51.470;6.938;2023-01-08T11:58:47;10.80;99.90
2955;DHT22;1487;51.470;6.938;2023-01-08T12:01:35;10.70;99.90
2955;DHT22;1487;51.470;6.938;2023-01-08T12:04:24;10.60;99.90
2955;DHT22;1487;51.470;6.938;2023-01-08T12:06:59;10.60;99.90
2955;DHT22;1487;51.470;6.938;2023-01-08T12:09:36;10.50;99.90
2955;DHT22;1487;51.470;6.938;2023-01-08T12:12:11;10.60;99.90
2955;DHT22;1487;51.470;6.938;2023-01-08T12:14:48;10.60;99.90
2955;DHT22;1487;51.470;6.938;2023-01-08T12:17:32;10.60;99.90
2955;DHT22;1487;51.470;6.938;2023-01-08T12:20:19;10.60;99.90
2955;DHT22;1487;51.470;6.938;2023-01-08T12:22:59;10.50;99.90
2955;DHT22;1487;51.470;6.938;2023-01-08T12:25:48;10.20;99.90
2955;DHT22;1487;51.470;6.938;2023-01-08T12:31:20;8.40;99.90
2955;DHT22;1487;51.470;6.938;2023-01-08T12:33:53;7.90;99.90
2955;DHT22;1487;51.470;6.938;2023-01-08T12:36:24;7.70;99.90
2955;DHT22;1487;51.470;6.938;2023-01-08T12:38:59;7.60;99.90
2955;DHT22;1487;51.470;6.938;2023-01-08T12:41:31;7.70;99.90
2955;DHT22;1487;51.470;6.938;2023-01-08T12:44:02;7.60;99.90
2955;DHT22;1487;51.470;6.938;2023-01-08T12:46:34;7.60;99.90
2955;DHT22;1487;51.470;6.938;2023-01-08T12:49:04;7.60;99.90
2955;DHT22;1487;51.470;6.938;2023-01-08T12:51:34;7.70;99.90
2955;DHT22;1487;51.470;6.938;2023-01-08T12:54:08;8.00;99.90
2955;DHT22;1487;51.470;6.938;2023-01-08T12:56:47;8.30;99.90
2955;DHT22;1487;51.470;6.938;2023-01-08T12:59:23;8.50;99.90
2955;DHT22;1487;51.470;6.938;2023-01-08T13:01:57;8.80;99.90
2955;DHT22;1487;51.470;6.938;2023-01-08T13:04:27;8.90;99.90
2955;DHT22;1487;51.470;6.938;2023-01-08T13:07:03;8.90;99.90
2955;DHT22;1487;51.470;6.938;2023-01-08T13:09:32;8.90;99.90
2955;DHT22;1487;51.470;6.938;2023-01-08T13:11:59;8.90;99.90
2955;DHT22;1487;51.470;6.938;2023-01-08T13:14:27;9.00;99.90
2955;DHT22;1487;51.470;6.938;2023-01-08T13:17:02;9.00;99.90
2955;DHT22;1487;51.470;6.938;2023-01-08T13:19:34;9.10;99.90
2955;DHT22;1487;51.470;6.938;2023-01-08T13:22:02;9.20;99.90
2955;DHT22;1487;51.470;6.938;2023-01-08T13:24:32;9.20;99.90
2955;DHT22;1487;51.470;6.938;2023-01-08T13:27:11;9.30;99.90
2955;DHT22;1487;51.470;6.938;2023-01-08T13:29:40;9.40;99.90
2955;DHT22;1487;51.470;6.938;2023-01-08T13:32:39;9.60;99.90
2955;DHT22;1487;51.470;6.938;2023-01-08T13:35:22;9.80;99.90
2955;DHT22;1487;51.470;6.938;2023-01-08T13:37:51;10.00;99.90
2955;DHT22;1487;51.470;6.938;2023-01-08T13:40:47;10.10;99.90
2955;DHT22;1487;51.470;6.938;2023-01-08T13:43:18;10.20;99.90
2955;DHT22;1487;51.470;6.938;2023-01-08T13:45:53;10.30;99.90
2955;DHT22;1487;51.470;6.938;2023-01-08T13:48:21;10.50;99.90
2955;DHT22;1487;51.470;6.938;2023-01-08T13:50:49;10.70;99.90
2955;DHT22;1487;51.470;6.938;2023-01-08T13:53:16;10.80;99.90
2955;DHT22;1487;51.470;6.938;2023-01-08T13:55:53;10.80;99.90
2955;DHT22;1487;51.470;6.938;2023-01-08T13:58:25;11.00;99.90
2955;DHT22;1487;51.470;6.938;2023-01-08T14:00:53;11.10;99.90
2955;DHT22;1487;51.470;6.938;2023-01-08T14:03:22;11.10;99.90
2955;DHT22;1487;51.470;6.938;2023-01-08T14:05:49;10.80;99.90
2955;DHT22;1487;51.470;6.938;2023-01-08T14:08:21;10.50;99.90
2955;DHT22;1487;51.470;6.938;2023-01-08T14:10:50;10.30;99.90
2955;DHT22;1487;51.470;6.938;2023-01-08T14:13:18;10.20;99.90
2955;DHT22;1487;51.470;6.938;2023-01-08T14:15:47;10.10;99.90
2955;DHT22;1487;51.470;6.938;2023-01-08T14:18:14;10.10;99.90
2955;DHT22;1487;51.470;6.938;2023-01-08T14:20:43;10.10;99.90
2955;DHT22;1487;51.470;6.938;2023-01-08T14:23:12;10.10;99.90
2955;DHT22;1487;51.470;6.938;2023-01-08T14:25:40;10.10;99.90
2955;DHT22;1487;51.470;6.938;2023-01-08T14:28:15;10.30;99.90
2955;DHT22;1487;51.470;6.938;2023-01-08T14:30:47;10.30;99.90
2955;DHT22;1487;51.470;6.938;2023-01-08T14:33:14;10.30;99.90
2955;DHT22;1487;51.470;6.938;2023-01-08T14:35:41;10.20;99.90
2955;DHT22;1487;51.470;6.938;2023-01-08T14:38:11;10.10;99.90
2955;DHT22;1487;51.470;6.938;2023-01-08T14:40:41;10.10;99.90
2955;DHT22;1487;51.470;6.938;2023-01-08T14:43:11;10.00;99.90
2955;DHT22;1487;51.470;6.938;2023-01-08T14:45:45;10.00;99.90
2955;DHT22;1487;51.470;6.938;2023-01-08T14:48:18;9.90;99.90
2955;DHT22;1487;51.470;6.938;2023-01-08T14:51:00;9.80;99.90
2955;DHT22;1487;51.470;6.938;2023-01-08T14:53:30;9.80;99.90
2955;DHT22;1487;51.470;6.938;2023-01-08T14:55:58;9.70;99.90
2955;DHT22;1487;51.470;6.938;2023-01-08T14:58:27;9.60;99.90
2955;DHT22;1487;51.470;6.938;2023-01-08T15:00:59;9.60;99.90
2955;DHT22;1487;51.470;6.938;2023-01-08T15:03:29;9.60;99.90
2955;DHT22;1487;51.470;6.938;2023-01-08T15:05:57;9.50;99.90
2955;DHT22;1487;51.470;6.938;2023-01-08T15:08:25;9.50;99.90
2955;DHT22;1487;51.470;6.938;2023-01-08T15:11:00;9.40;99.90
2955;DHT22;1487;51.470;6.938;2023-01-08T15:13:32;9.20;99.90
2955;DHT22;1487;51.470;6.938;2023-01-08T15:16:05;9.10;99.90
2955;DHT22;1487;51.470;6.938;2023-01-08T15:18:35;9.10;99.90
2955;DHT22;1487;51.470;6.938;2023-01-08T15:21:07;9.00;99.90
2955;DHT22;1487;51.470;6.938;2023-01-08T15:23:38;9.00;99.90
2955;DHT22;1487;51.470;6.938;2023-01-08T15:26:09;9.10;99.90
2955;DHT22;1487;51.470;6.938;2023-01-08T15:28:36;9.10;99.90
2955;DHT22;1487;51.470;6.938;2023-01-08T15:31:05;9.10;99.90
2955;DHT22;1487;51.470;6.938;2023-01-08T15:33:32;9.10;99.90
2955;DHT22;1487;51.470;6.938;2023-01-08T15:35:59;9.10;99.90
2955;DHT22;1487;51.470;6.938;2023-01-08T15:38:25;9.00;99.90
2955;DHT22;1487;51.470;6.938;2023-01-08T15:40:53;9.00;99.90
2955;DHT22;1487;51.470;6.938;2023-01-08T15:43:20;8.90;99.90
2955;DHT22;1487;51.470;6.938;2023-01-08T15:45:47;8.90;99.90
2955;DHT22;1487;51.470;6.938;2023-01-08T15:48:16;8.80;99.90
2955;DHT22;1487;51.470;6.938;2023-01-08T15:50:44;8.80;99.90
2955;DHT22;1487;51.470;6.938;2023-01-08T15:53:21;8.80;99.90
2955;DHT22;1487;51.470;6.938;2023-01-08T15:55:48;8.80;99.90
2955;DHT22;1487;51.470;6.938;2023-01-08T15:58:15;8.80;99.90
2955;DHT22;1487;51.470;6.938;2023-01-08T16:00:43;8.80;99.90
2955;DHT22;1487;51.470;6.938;2023-01-08T16:03:11;8.80;99.90
2955;DHT22;1487;51.470;6.938;2023-01-08T16:05:39;8.70;99.90
2955;DHT22;1487;51.470;6.938;2023-01-08T16:08:06;8.80;99.90
2955;DHT22;1487;51.470;6.938;2023-01-08T16:10:33;8.80;99.90
2955;DHT22;1487;51.470;6.938;2023-01-08T16:13:01;8.80;99.90
2955;DHT22;1487;51.470;6.938;2023-01-08T16:15:28;8.80;99.90
2955;DHT22;1487;51.470;6.938;2023-01-08T16:17:56;8.90;99.90
2955;DHT22;1487;51.470;6.938;2023-01-08T16:20:23;8.90;99.90
2955;DHT22;1487;51.470;6.938;2023-01-08T16:22:51;8.90;99.90
2955;DHT22;1487;51.470;6.938;2023-01-08T16:25:19;8.90;99.90
2955;DHT22;1487;51.470;6.938;2023-01-08T16:27:46;9.00;99.90
2955;DHT22;1487;51.470;6.938;2023-01-08T16:30:13;9.00;99.90